Positano Jet — IFTU — position and weather

sailwx.info

Track history (hours):
 
Tides and Currents Weather Stations Pressure Air Temp Water Temp Dewpoint Dewpoint Depression Visibility Wind Speed Wind Dir Waves Ship Positions

Positano Jet

Last reported at 2016-Jun-26 16:34 UTC. Time now 2016-Jun-27 04:16 UTC.
Position N 40°37' E 014°29'.

Length 23 m; draft 2 m.

Type: Ship. MMSI: 247160800.

Date/timePositionNaut miles runAvg speedWind from/ knotsBaromVisibWave heightAir tempDewpointWater temp
2016-Jun-26 16:34N 40°37' E 014°29'1010.2
2016-Jun-26 15:33N 40°34' E 014°16'4 2.0
2016-Jun-26 13:33N 40°34' E 014°22'3 3.3
2016-Jun-26 12:33N 40°34' E 014°17'6 3.1
2016-Jun-26 10:33N 40°35' E 014°25'9 8.6
2016-Jun-26 09:33N 40°33' E 014°14'5 0.3
2016-Jun-25 16:17N 40°34' E 014°20'3 4.0
2016-Jun-25 15:33N 40°34' E 014°16'3 1.7
2016-Jun-25 13:28N 40°34' E 014°21'3 3.1
2016-Jun-25 12:33N 40°34' E 014°17'2 1.0
2016-Jun-25 10:21N 40°34' E 014°20'4 4.6
2016-Jun-25 09:25N 40°33' E 014°14'4 0.2
2016-Jun-24 16:15N 40°34' E 014°20'2 2.9
2016-Jun-24 15:33N 40°34' E 014°17'10 9.7
2016-Jun-24 14:32N 40°37' E 014°29'8 7.3
2016-Jun-24 13:25N 40°34' E 014°20'2 2.0
2016-Jun-24 12:33N 40°34' E 014°17'2 0.8
2016-Jun-24 10:15N 40°34' E 014°20'4 5.8
2016-Jun-24 09:33N 40°33' E 014°14'8 0.2
2016-Jun-22 10:33N 40°35' E 014°25'8 8.5
2016-Jun-22 09:33N 40°33' E 014°14'12 0.7
2016-Jun-21 16:33N 40°37' E 014°29'7 1.7
2016-Jun-21 12:24N 40°34' E 014°21'7 8.4
2016-Jun-21 11:30N 40°37' E 014°29'3 3.4
2016-Jun-21 10:31N 40°36' E 014°25'9 9.0
2016-Jun-21 09:33N 40°33' E 014°14'0 0.0
2016-Jun-20 13:07N 40°33' E 014°14'3 5.3
2016-Jun-20 12:33N 40°34' E 014°18'9 8.5
2016-Jun-20 11:28N 40°37' E 014°29'7 6.7
2016-Jun-20 10:23N 40°34' E 014°21'1 0.1
2016-Jun-19 13:32N 40°35' E 014°22'4 4.1
2016-Jun-19 12:33N 40°34' E 014°17'10 9.8
2016-Jun-19 11:33N 40°38' E 014°29'3 3.0
2016-Jun-19 10:33N 40°36' E 014°26'9 9.3
2016-Jun-19 09:33N 40°33' E 014°14'1110.9
2016-Jun-19 08:33N 40°37' E 014°28'3 1.4
2016-Jun-19 06:16N 40°36' E 014°32'3 0.2
2016-Jun-18 16:33N 40°37' E 014°28'1010.0
2016-Jun-18 15:34N 40°34' E 014°15'1111.1
2016-Jun-18 14:33N 40°38' E 014°29'6 5.5
2016-Jun-18 13:32N 40°35' E 014°23'6 6.2
2016-Jun-18 12:34N 40°34' E 014°15'1211.5
2016-Jun-18 11:33N 40°38' E 014°29'3 2.6
2016-Jun-18 10:34N 40°36' E 014°26'10 9.5
2016-Jun-18 09:33N 40°33' E 014°14'1111.0
2016-Jun-18 08:33N 40°37' E 014°28'1 0.1
2016-Jun-17 14:19N 40°37' E 014°29'7 8.9
2016-Jun-17 13:33N 40°34' E 014°21'5 5.2
2016-Jun-17 12:33N 40°33' E 014°14'0 0.0
2016-Jun-17 11:33N 40°33' E 014°14'0 0.0
2016-Jun-17 10:33N 40°33' E 014°14'0 0.0
2016-Jun-17 09:33N 40°33' E 014°14'1210.1
2016-Jun-17 08:22N 40°38' E 014°29'  
Track history (hours):
 
Tides and Currents Weather Stations Pressure Air Temp Water Temp Dewpoint Dewpoint Depression Visibility Wind Speed Wind Dir Waves Ship Positions

Positano Jet

Last reported at 2016-Jun-26 16:34 UTC. Time now 2016-Jun-27 04:16 UTC.
Position N 40°37' E 014°29'.

Length 23 m; draft 2 m.

Type: Ship. MMSI: 247160800.

Date/timePositionNaut miles runAvg speedWind from/ knotsBaromVisibWave heightAir tempDewpointWater temp
2016-Jun-26 16:34N 40°37' E 014°29'1010.2
2016-Jun-26 15:33N 40°34' E 014°16'4 2.0
2016-Jun-26 13:33N 40°34' E 014°22'3 3.3
2016-Jun-26 12:33N 40°34' E 014°17'6 3.1
2016-Jun-26 10:33N 40°35' E 014°25'9 8.6
2016-Jun-26 09:33N 40°33' E 014°14'5 0.3
2016-Jun-25 16:17N 40°34' E 014°20'3 4.0
2016-Jun-25 15:33N 40°34' E 014°16'3 1.7
2016-Jun-25 13:28N 40°34' E 014°21'3 3.1
2016-Jun-25 12:33N 40°34' E 014°17'2 1.0
2016-Jun-25 10:21N 40°34' E 014°20'4 4.6
2016-Jun-25 09:25N 40°33' E 014°14'4 0.2
2016-Jun-24 16:15N 40°34' E 014°20'2 2.9
2016-Jun-24 15:33N 40°34' E 014°17'10 9.7
2016-Jun-24 14:32N 40°37' E 014°29'8 7.3
2016-Jun-24 13:25N 40°34' E 014°20'2 2.0
2016-Jun-24 12:33N 40°34' E 014°17'2 0.8
2016-Jun-24 10:15N 40°34' E 014°20'4 5.8
2016-Jun-24 09:33N 40°33' E 014°14'8 0.2
2016-Jun-22 10:33N 40°35' E 014°25'8 8.5
2016-Jun-22 09:33N 40°33' E 014°14'12 0.7
2016-Jun-21 16:33N 40°37' E 014°29'7 1.7
2016-Jun-21 12:24N 40°34' E 014°21'7 8.4
2016-Jun-21 11:30N 40°37' E 014°29'3 3.4
2016-Jun-21 10:31N 40°36' E 014°25'9 9.0
2016-Jun-21 09:33N 40°33' E 014°14'0 0.0
2016-Jun-20 13:07N 40°33' E 014°14'3 5.3
2016-Jun-20 12:33N 40°34' E 014°18'9 8.5
2016-Jun-20 11:28N 40°37' E 014°29'7 6.7
2016-Jun-20 10:23N 40°34' E 014°21'1 0.1
2016-Jun-19 13:32N 40°35' E 014°22'4 4.1
2016-Jun-19 12:33N 40°34' E 014°17'10 9.8
2016-Jun-19 11:33N 40°38' E 014°29'3 3.0
2016-Jun-19 10:33N 40°36' E 014°26'9 9.3
2016-Jun-19 09:33N 40°33' E 014°14'1110.9
2016-Jun-19 08:33N 40°37' E 014°28'3 1.4
2016-Jun-19 06:16N 40°36' E 014°32'3 0.2
2016-Jun-18 16:33N 40°37' E 014°28'1010.0
2016-Jun-18 15:34N 40°34' E 014°15'1111.1
2016-Jun-18 14:33N 40°38' E 014°29'6 5.5
2016-Jun-18 13:32N 40°35' E 014°23'6 6.2
2016-Jun-18 12:34N 40°34' E 014°15'1211.5
2016-Jun-18 11:33N 40°38' E 014°29'3 2.6
2016-Jun-18 10:34N 40°36' E 014°26'10 9.5
2016-Jun-18 09:33N 40°33' E 014°14'1111.0
2016-Jun-18 08:33N 40°37' E 014°28'1 0.1
2016-Jun-17 14:19N 40°37' E 014°29'7 8.9
2016-Jun-17 13:33N 40°34' E 014°21'5 5.2
2016-Jun-17 12:33N 40°33' E 014°14'0 0.0
2016-Jun-17 11:33N 40°33' E 014°14'0 0.0
2016-Jun-17 10:33N 40°33' E 014°14'0 0.0
2016-Jun-17 09:33N 40°33' E 014°14'1210.1
2016-Jun-17 08:22N 40°38' E 014°29'  

Dump ship's entire track history